createdAt,value
2022-08-21T00:00:20.201Z,17.51
2022-08-21T00:05:21.353Z,17.49
2022-08-21T00:10:22.646Z,17.35
2022-08-21T00:15:27.935Z,17.37
2022-08-21T00:20:28.827Z,17.25
2022-08-21T00:25:29.513Z,17.25
2022-08-21T00:30:32.770Z,17.25
2022-08-21T00:35:36.895Z,17.31
2022-08-21T00:40:45.296Z,17.29
2022-08-21T00:45:47.492Z,17.30
2022-08-21T00:50:52.779Z,17.34
2022-08-21T00:55:54.357Z,17.34
2022-08-21T01:01:00.128Z,17.35
2022-08-21T01:06:00.975Z,17.34
2022-08-21T01:11:03.214Z,17.34
2022-08-21T01:16:10.349Z,17.31
2022-08-21T01:21:15.399Z,17.31
2022-08-21T01:26:18.453Z,17.19
2022-08-21T01:31:24.709Z,16.99
2022-08-21T01:36:29.534Z,16.88
2022-08-21T01:41:30.161Z,16.77
2022-08-21T01:46:30.982Z,16.75
2022-08-21T01:51:33.132Z,16.70
2022-08-21T01:56:39.218Z,16.61
2022-08-21T02:01:40.374Z,16.54
2022-08-21T02:06:42.488Z,16.53
2022-08-21T02:11:43.989Z,16.51
2022-08-21T02:16:46.328Z,16.56
2022-08-21T02:21:51.158Z,16.68
2022-08-21T02:26:51.782Z,16.64
2022-08-21T02:31:52.398Z,16.64
2022-08-21T02:36:59.317Z,16.60
2022-08-21T02:42:00.818Z,16.75
2022-08-21T02:47:01.445Z,16.65
2022-08-21T02:52:03.636Z,16.66
2022-08-21T02:57:04.500Z,16.68
2022-08-21T03:02:05.508Z,16.73
2022-08-21T03:07:11.147Z,16.61
2022-08-21T03:12:11.942Z,16.78
2022-08-21T03:17:12.531Z,16.85
2022-08-21T03:22:14.496Z,16.92
2022-08-21T03:27:16.309Z,17.04
2022-08-21T03:32:17.002Z,17.00
2022-08-21T03:37:19.515Z,16.87
2022-08-21T03:42:20.123Z,16.85
2022-08-21T03:47:20.789Z,16.82
2022-08-21T03:52:22.684Z,16.86
2022-08-21T03:57:23.899Z,16.87
2022-08-21T04:02:24.859Z,16.85
2022-08-21T04:07:26.834Z,16.78
2022-08-21T04:12:27.549Z,16.76
2022-08-21T04:17:28.173Z,16.78
2022-08-21T04:22:30.069Z,16.70
2022-08-21T04:27:30.704Z,16.76
2022-08-21T04:32:31.736Z,16.76
2022-08-21T04:37:33.690Z,16.81
2022-08-21T04:42:34.770Z,16.76
2022-08-21T04:47:41.829Z,16.74
2022-08-21T04:52:55.806Z,16.78
2022-08-21T04:57:57.271Z,16.81
2022-08-21T05:03:01.304Z,16.86
2022-08-21T05:08:05.404Z,16.88
2022-08-21T05:13:08.132Z,16.99
2022-08-21T05:18:08.806Z,17.10
2022-08-21T05:23:12.400Z,17.20
2022-08-21T05:28:13.623Z,17.33
2022-08-21T05:33:14.440Z,17.51
2022-08-21T05:38:18.156Z,17.64
2022-08-21T05:43:19.213Z,17.73
2022-08-21T05:48:21.776Z,17.75
2022-08-21T05:53:25.370Z,17.74
2022-08-21T05:58:26.060Z,17.65
2022-08-21T06:03:28.577Z,17.74
2022-08-21T06:08:31.531Z,17.94
2022-08-21T06:13:32.248Z,18.07
2022-08-21T06:18:32.945Z,18.12
2022-08-21T06:23:35.405Z,18.12
2022-08-21T06:28:37.917Z,18.22
2022-08-21T06:33:38.583Z,18.40
2022-08-21T06:38:41.177Z,18.38
2022-08-21T06:43:41.860Z,18.47
2022-08-21T06:48:42.511Z,18.45
2022-08-21T06:53:45.063Z,18.61
2022-08-21T06:58:45.805Z,18.70
2022-08-21T07:03:46.464Z,18.65
2022-08-21T07:08:48.485Z,18.60
2022-08-21T07:13:50.028Z,18.63
2022-08-21T07:18:50.837Z,18.84
2022-08-21T07:23:53.469Z,19.01
2022-08-21T07:28:54.982Z,19.07
2022-08-21T07:33:56.445Z,19.11
2022-08-21T07:38:58.604Z,19.36
2022-08-21T07:43:59.870Z,19.32
2022-08-21T07:49:00.564Z,19.32
2022-08-21T07:54:02.986Z,19.21
2022-08-21T07:59:03.824Z,19.22
2022-08-21T08:04:05.214Z,19.13
2022-08-21T08:09:07.217Z,18.99
2022-08-21T08:14:08.041Z,19.29
2022-08-21T08:19:08.979Z,19.34
2022-08-21T08:24:18.744Z,19.53
2022-08-21T08:29:20.290Z,19.70
2022-08-21T08:34:23.550Z,19.90
2022-08-21T08:39:29.408Z,20.24
2022-08-21T08:44:30.595Z,20.64
2022-08-21T08:49:36.849Z,20.46
2022-08-21T08:54:44.986Z,20.28
2022-08-21T08:59:50.010Z,20.13
2022-08-21T09:04:53.180Z,20.54
2022-08-21T09:10:08.478Z,20.51
2022-08-21T09:15:19.330Z,20.55
2022-08-21T09:20:30.935Z,20.69
2022-08-21T09:25:38.490Z,20.84
2022-08-21T09:30:42.918Z,21.06
2022-08-21T09:35:53.621Z,21.53
2022-08-21T09:41:01.142Z,21.53
2022-08-21T09:46:12.865Z,20.99
2022-08-21T09:51:16.800Z,20.96
2022-08-21T09:56:45.997Z,20.99
2022-08-21T10:01:49.695Z,20.99
2022-08-21T10:06:51.047Z,21.31
2022-08-21T10:12:00.719Z,21.08
2022-08-21T10:17:07.250Z,21.14
2022-08-21T10:22:22.143Z,21.04
2022-08-21T10:27:33.091Z,21.69
2022-08-21T10:32:57.825Z,21.40
2022-08-21T10:38:33.494Z,21.66
2022-08-21T10:43:51.319Z,21.75
2022-08-21T10:48:59.744Z,21.91
2022-08-21T10:54:07.615Z,22.31
2022-08-21T10:59:27.588Z,22.23
2022-08-21T11:04:49.069Z,21.93
2022-08-21T11:09:51.753Z,21.65
2022-08-21T11:14:57.596Z,21.78
2022-08-21T11:20:06.490Z,22.51
2022-08-21T11:25:12.950Z,22.93
2022-08-21T11:30:16.822Z,22.87
2022-08-21T11:35:26.565Z,23.66
2022-08-21T11:40:41.610Z,23.90
2022-08-21T11:45:48.221Z,23.43
2022-08-21T11:50:51.530Z,23.06
2022-08-21T11:56:00.631Z,23.03
2022-08-21T12:01:07.359Z,22.79
2022-08-21T12:06:11.323Z,22.63
2022-08-21T12:11:30.632Z,22.49
2022-08-21T12:16:36.764Z,22.67
2022-08-21T12:21:51.627Z,22.55
2022-08-21T12:26:55.044Z,22.13
2022-08-21T12:32:01.005Z,22.26
2022-08-21T12:37:05.470Z,22.24
2022-08-21T12:42:14.409Z,22.38
2022-08-21T12:47:19.705Z,22.23
2022-08-21T12:52:24.082Z,22.59
2022-08-21T12:57:28.562Z,22.35
2022-08-21T13:02:36.053Z,22.74
2022-08-21T13:07:39.545Z,22.37
2022-08-21T13:12:40.258Z,22.59
2022-08-21T13:17:49.127Z,22.46
2022-08-21T13:22:49.984Z,22.50
2022-08-21T13:28:01.124Z,22.74
2022-08-21T13:33:12.743Z,22.60
2022-08-21T13:38:14.037Z,22.51
2022-08-21T13:43:18.359Z,22.65
2022-08-21T13:48:27.146Z,22.97
2022-08-21T13:53:32.574Z,22.72
2022-08-21T13:58:35.442Z,22.49
2022-08-21T14:03:44.148Z,22.70
2022-08-21T14:08:52.769Z,22.97
2022-08-21T14:13:59.859Z,23.18
2022-08-21T14:19:22.044Z,23.51
2022-08-21T14:24:32.147Z,23.56
2022-08-21T14:29:40.059Z,23.45
2022-08-21T14:34:44.078Z,23.38
2022-08-21T14:39:47.599Z,23.29
2022-08-21T14:44:48.906Z,23.07
2022-08-21T14:49:51.345Z,23.28
2022-08-21T14:54:52.067Z,23.22
2022-08-21T14:59:53.106Z,23.35
2022-08-21T15:04:55.224Z,23.76
2022-08-21T15:09:55.951Z,23.89
2022-08-21T15:14:56.769Z,23.60
2022-08-21T15:19:58.847Z,23.58
2022-08-21T15:24:59.594Z,23.69
2022-08-21T15:30:00.481Z,23.25
2022-08-21T15:35:02.570Z,23.74
2022-08-21T15:40:03.859Z,24.05
2022-08-21T15:45:05.665Z,24.19
2022-08-21T15:50:10.721Z,24.33
2022-08-21T15:55:12.142Z,24.08
2022-08-21T16:00:26.792Z,23.45
2022-08-21T16:05:29.037Z,23.68
2022-08-21T16:10:30.908Z,23.58
2022-08-21T16:15:31.848Z,22.89
2022-08-21T16:20:34.270Z,22.33
2022-08-21T16:25:37.117Z,21.90
2022-08-21T16:30:41.077Z,21.89
2022-08-21T16:35:43.106Z,21.77
2022-08-21T16:40:44.360Z,21.69
2022-08-21T16:45:45.493Z,21.69
2022-08-21T16:50:50.958Z,22.18
2022-08-21T16:55:53.021Z,22.62
2022-08-21T17:00:54.466Z,22.36
2022-08-21T17:05:56.583Z,21.70
2022-08-21T17:10:57.861Z,22.33
2022-08-21T17:15:59.031Z,24.28
2022-08-21T17:21:01.195Z,23.94
2022-08-21T17:26:02.118Z,23.46
2022-08-21T17:31:09.996Z,22.50
2022-08-21T17:36:12.675Z,22.99
2022-08-21T17:41:14.646Z,24.01
2022-08-21T17:46:20.075Z,24.14
2022-08-21T17:51:22.716Z,23.27
2022-08-21T17:56:32.987Z,22.07
2022-08-21T18:01:38.277Z,21.19
2022-08-21T18:06:40.441Z,20.65
2022-08-21T18:11:43.784Z,20.35
2022-08-21T18:16:44.614Z,20.01
2022-08-21T18:21:46.778Z,19.78
2022-08-21T18:26:47.624Z,19.64
2022-08-21T18:31:49.005Z,19.41
2022-08-21T18:36:52.126Z,19.32
2022-08-21T18:41:53.358Z,19.24
2022-08-21T18:46:58.184Z,18.97
2022-08-21T18:52:03.465Z,18.72
2022-08-21T18:57:06.022Z,18.41
2022-08-21T19:02:10.441Z,18.15
2022-08-21T19:07:14.785Z,18.14
2022-08-21T19:12:21.834Z,17.98
2022-08-21T19:17:23.689Z,17.78
2022-08-21T19:22:25.825Z,17.66
2022-08-21T19:27:26.851Z,17.65
2022-08-21T19:32:28.411Z,17.51
2022-08-21T19:37:30.559Z,17.34
2022-08-21T19:42:31.386Z,17.22
2022-08-21T19:47:32.983Z,17.08
2022-08-21T19:52:35.686Z,16.95
2022-08-21T19:57:38.457Z,16.83
2022-08-21T20:02:39.775Z,16.70
2022-08-21T20:07:50.674Z,16.52
2022-08-21T20:12:54.008Z,16.52
2022-08-21T20:17:55.073Z,16.62
2022-08-21T20:22:59.403Z,16.48
2022-08-21T20:28:00.805Z,16.41
2022-08-21T20:33:01.830Z,16.37
2022-08-21T20:38:04.381Z,16.22
2022-08-21T20:43:05.619Z,16.06
2022-08-21T20:48:11.883Z,16.00
2022-08-21T20:53:17.222Z,15.85
2022-08-21T20:58:29.607Z,15.81
2022-08-21T21:03:34.787Z,15.71
2022-08-21T21:08:41.049Z,15.65
2022-08-21T21:13:52.378Z,15.52
2022-08-21T21:18:59.585Z,15.47
2022-08-21T21:24:07.276Z,15.32
2022-08-21T21:29:15.493Z,15.36
2022-08-21T21:34:17.434Z,15.29
2022-08-21T21:39:37.263Z,15.24
2022-08-21T21:45:03.905Z,15.22
2022-08-21T21:50:20.767Z,15.14
2022-08-21T21:55:34.860Z,15.11
2022-08-21T22:00:42.726Z,15.11
2022-08-21T22:06:00.378Z,15.05
2022-08-21T22:11:23.925Z,15.03
2022-08-21T22:16:25.564Z,14.96
2022-08-21T22:21:32.939Z,14.93
2022-08-21T22:26:44.086Z,15.03
2022-08-21T22:32:01.000Z,15.05
2022-08-21T22:37:08.740Z,15.08
2022-08-21T22:42:14.532Z,15.07
2022-08-21T22:47:22.299Z,14.95
2022-08-21T22:52:26.968Z,15.28
2022-08-21T22:57:31.556Z,15.19
2022-08-21T23:02:38.750Z,15.04
2022-08-21T23:07:43.439Z,15.05
2022-08-21T23:12:49.736Z,15.00
2022-08-21T23:18:00.998Z,14.92
2022-08-21T23:23:10.694Z,14.89
2022-08-21T23:28:24.603Z,14.72
2022-08-21T23:33:43.786Z,14.69
2022-08-21T23:39:00.500Z,14.64
2022-08-21T23:44:12.175Z,14.56
2022-08-21T23:49:30.259Z,14.48
2022-08-21T23:54:49.318Z,14.42
